sensor_id;sensor_type;location;lat;lon;timestamp;temperature;humidity
33994;DHT22;20673;48.980;8.138;2022-08-30T00:01:26;18.60;99.90
33994;DHT22;20673;48.980;8.138;2022-08-30T00:03:55;18.60;99.90
33994;DHT22;20673;48.980;8.138;2022-08-30T00:06:24;18.60;99.90
33994;DHT22;20673;48.980;8.138;2022-08-30T00:08:51;18.60;99.90
33994;DHT22;20673;48.980;8.138;2022-08-30T00:11:23;18.50;99.90
33994;DHT22;20673;48.980;8.138;2022-08-30T00:13:53;18.50;99.90
33994;DHT22;20673;48.980;8.138;2022-08-30T00:16:22;18.50;99.90
33994;DHT22;20673;48.980;8.138;2022-08-30T00:18:49;18.50;99.90
33994;DHT22;20673;48.980;8.138;2022-08-30T00:21:16;18.40;99.90
33994;DHT22;20673;48.980;8.138;2022-08-30T00:23:42;18.40;99.90
33994;DHT22;20673;48.980;8.138;2022-08-30T00:26:08;18.40;99.90
33994;DHT22;20673;48.980;8.138;2022-08-30T00:28:35;18.40;99.90
33994;DHT22;20673;48.980;8.138;2022-08-30T00:31:02;18.40;99.90
33994;DHT22;20673;48.980;8.138;2022-08-30T00:33:30;18.40;99.90
33994;DHT22;20673;48.980;8.138;2022-08-30T00:35:56;18.30;99.90
33994;DHT22;20673;48.980;8.138;2022-08-30T00:38:23;18.30;99.90
33994;DHT22;20673;48.980;8.138;2022-08-30T00:40:50;18.30;99.90
33994;DHT22;20673;48.980;8.138;2022-08-30T00:43:24;18.30;99.90
33994;DHT22;20673;48.980;8.138;2022-08-30T00:45:50;18.30;99.90
33994;DHT22;20673;48.980;8.138;2022-08-30T00:48:17;18.30;99.90
33994;DHT22;20673;48.980;8.138;2022-08-30T00:50:46;18.30;99.90
33994;DHT22;20673;48.980;8.138;2022-08-30T00:53:18;18.30;99.90
33994;DHT22;20673;48.980;8.138;2022-08-30T00:55:47;18.30;99.90
33994;DHT22;20673;48.980;8.138;2022-08-30T00:58:17;18.30;99.90
33994;DHT22;20673;48.980;8.138;2022-08-30T01:00:49;18.30;99.90
33994;DHT22;20673;48.980;8.138;2022-08-30T01:03:17;18.30;99.90
33994;DHT22;20673;48.980;8.138;2022-08-30T01:05:44;18.20;99.90
33994;DHT22;20673;48.980;8.138;2022-08-30T01:08:12;18.30;99.90
33994;DHT22;20673;48.980;8.138;2022-08-30T01:10:40;18.30;99.90
33994;DHT22;20673;48.980;8.138;2022-08-30T01:13:09;18.30;99.90
33994;DHT22;20673;48.980;8.138;2022-08-30T01:15:39;18.30;99.90
33994;DHT22;20673;48.980;8.138;2022-08-30T01:18:06;18.30;99.90
33994;DHT22;20673;48.980;8.138;2022-08-30T01:20:38;18.40;99.90
33994;DHT22;20673;48.980;8.138;2022-08-30T01:23:15;18.30;99.90
33994;DHT22;20673;48.980;8.138;2022-08-30T01:25:46;18.30;99.90
33994;DHT22;20673;48.980;8.138;2022-08-30T01:28:20;18.30;99.90
33994;DHT22;20673;48.980;8.138;2022-08-30T01:30:48;18.20;99.90
33994;DHT22;20673;48.980;8.138;2022-08-30T01:33:14;18.20;99.90
33994;DHT22;20673;48.980;8.138;2022-08-30T01:35:47;18.20;99.90
33994;DHT22;20673;48.980;8.138;2022-08-30T01:38:19;18.20;99.90
33994;DHT22;20673;48.980;8.138;2022-08-30T01:40:49;18.20;99.90
33994;DHT22;20673;48.980;8.138;2022-08-30T01:43:17;18.10;99.90
33994;DHT22;20673;48.980;8.138;2022-08-30T01:45:44;18.10;99.90
33994;DHT22;20673;48.980;8.138;2022-08-30T01:48:10;18.10;99.90
33994;DHT22;20673;48.980;8.138;2022-08-30T01:50:40;18.10;99.90
33994;DHT22;20673;48.980;8.138;2022-08-30T01:53:07;18.10;99.90
33994;DHT22;20673;48.980;8.138;2022-08-30T01:55:34;18.10;99.90
33994;DHT22;20673;48.980;8.138;2022-08-30T01:58:01;18.10;99.90
33994;DHT22;20673;48.980;8.138;2022-08-30T02:00:27;18.10;99.90
33994;DHT22;20673;48.980;8.138;2022-08-30T02:02:53;18.10;99.90
33994;DHT22;20673;48.980;8.138;2022-08-30T02:05:20;18.00;99.90
33994;DHT22;20673;48.980;8.138;2022-08-30T02:07:46;18.10;99.90
33994;DHT22;20673;48.980;8.138;2022-08-30T02:10:13;18.00;99.90
33994;DHT22;20673;48.980;8.138;2022-08-30T02:12:40;18.00;99.90
33994;DHT22;20673;48.980;8.138;2022-08-30T02:15:07;18.00;99.90
33994;DHT22;20673;48.980;8.138;2022-08-30T02:17:34;18.00;99.90
33994;DHT22;20673;48.980;8.138;2022-08-30T02:20:02;18.00;99.90
33994;DHT22;20673;48.980;8.138;2022-08-30T02:22:29;18.00;99.90
33994;DHT22;20673;48.980;8.138;2022-08-30T02:24:55;18.00;99.90
33994;DHT22;20673;48.980;8.138;2022-08-30T02:27:21;17.90;99.90
33994;DHT22;20673;48.980;8.138;2022-08-30T02:29:48;17.90;99.90
33994;DHT22;20673;48.980;8.138;2022-08-30T02:32:14;17.90;99.90
33994;DHT22;20673;48.980;8.138;2022-08-30T02:34:40;17.90;99.90
33994;DHT22;20673;48.980;8.138;2022-08-30T02:37:06;17.90;99.90
33994;DHT22;20673;48.980;8.138;2022-08-30T02:39:33;17.80;99.90
33994;DHT22;20673;48.980;8.138;2022-08-30T02:41:59;17.80;99.90
33994;DHT22;20673;48.980;8.138;2022-08-30T02:44:26;17.90;99.90
33994;DHT22;20673;48.980;8.138;2022-08-30T02:46:52;17.80;99.90
33994;DHT22;20673;48.980;8.138;2022-08-30T02:49:18;17.70;99.90
33994;DHT22;20673;48.980;8.138;2022-08-30T02:51:44;17.70;99.90
33994;DHT22;20673;48.980;8.138;2022-08-30T02:54:11;17.70;99.90
33994;DHT22;20673;48.980;8.138;2022-08-30T02:56:40;17.70;99.90
33994;DHT22;20673;48.980;8.138;2022-08-30T02:59:07;17.60;99.90
33994;DHT22;20673;48.980;8.138;2022-08-30T03:01:33;17.70;99.90
33994;DHT22;20673;48.980;8.138;2022-08-30T03:04:00;17.60;99.90
33994;DHT22;20673;48.980;8.138;2022-08-30T03:06:27;17.60;99.90
33994;DHT22;20673;48.980;8.138;2022-08-30T03:08:53;17.60;99.90
33994;DHT22;20673;48.980;8.138;2022-08-30T03:11:20;17.60;99.90
33994;DHT22;20673;48.980;8.138;2022-08-30T03:13:47;17.60;99.90
33994;DHT22;20673;48.980;8.138;2022-08-30T03:16:14;17.60;99.90
33994;DHT22;20673;48.980;8.138;2022-08-30T03:18:40;17.50;99.90
33994;DHT22;20673;48.980;8.138;2022-08-30T03:21:09;17.50;99.90
33994;DHT22;20673;48.980;8.138;2022-08-30T03:23:39;17.60;99.90
33994;DHT22;20673;48.980;8.138;2022-08-30T03:26:07;17.60;99.90
33994;DHT22;20673;48.980;8.138;2022-08-30T03:28:36;17.60;99.90
33994;DHT22;20673;48.980;8.138;2022-08-30T03:31:02;17.60;99.90
33994;DHT22;20673;48.980;8.138;2022-08-30T03:33:28;17.50;99.90
33994;DHT22;20673;48.980;8.138;2022-08-30T03:35:55;17.50;99.90
33994;DHT22;20673;48.980;8.138;2022-08-30T03:38:21;17.50;99.90
33994;DHT22;20673;48.980;8.138;2022-08-30T03:40:47;17.50;99.90
33994;DHT22;20673;48.980;8.138;2022-08-30T03:43:13;17.50;99.90
33994;DHT22;20673;48.980;8.138;2022-08-30T03:45:39;17.50;99.90
33994;DHT22;20673;48.980;8.138;2022-08-30T03:48:06;17.50;99.90
33994;DHT22;20673;48.980;8.138;2022-08-30T03:50:32;17.50;99.90
33994;DHT22;20673;48.980;8.138;2022-08-30T03:53:00;17.50;99.90
33994;DHT22;20673;48.980;8.138;2022-08-30T03:55:27;17.40;99.90
33994;DHT22;20673;48.980;8.138;2022-08-30T03:57:54;17.40;99.90
33994;DHT22;20673;48.980;8.138;2022-08-30T04:00:21;17.40;99.90
33994;DHT22;20673;48.980;8.138;2022-08-30T04:02:47;17.40;99.90
33994;DHT22;20673;48.980;8.138;2022-08-30T04:05:14;17.30;99.90
33994;DHT22;20673;48.980;8.138;2022-08-30T04:07:40;17.30;99.90
33994;DHT22;20673;48.980;8.138;2022-08-30T04:10:08;17.30;99.90
33994;DHT22;20673;48.980;8.138;2022-08-30T04:12:35;17.30;99.90
33994;DHT22;20673;48.980;8.138;2022-08-30T04:15:03;17.30;99.90
33994;DHT22;20673;48.980;8.138;2022-08-30T04:17:30;17.20;99.90
33994;DHT22;20673;48.980;8.138;2022-08-30T04:19:57;17.20;99.90
33994;DHT22;20673;48.980;8.138;2022-08-30T04:22:23;17.30;99.90
33994;DHT22;20673;48.980;8.138;2022-08-30T04:24:49;17.30;99.90
33994;DHT22;20673;48.980;8.138;2022-08-30T04:27:15;17.20;99.90
33994;DHT22;20673;48.980;8.138;2022-08-30T04:29:43;17.10;99.90
33994;DHT22;20673;48.980;8.138;2022-08-30T04:32:09;17.20;99.90
33994;DHT22;20673;48.980;8.138;2022-08-30T04:34:35;17.10;99.90
33994;DHT22;20673;48.980;8.138;2022-08-30T04:37:02;17.10;99.90
33994;DHT22;20673;48.980;8.138;2022-08-30T04:39:28;17.10;99.90
33994;DHT22;20673;48.980;8.138;2022-08-30T04:41:54;17.10;99.90
33994;DHT22;20673;48.980;8.138;2022-08-30T04:44:20;17.10;99.90
33994;DHT22;20673;48.980;8.138;2022-08-30T04:46:47;17.10;99.90
33994;DHT22;20673;48.980;8.138;2022-08-30T04:49:13;17.00;99.90
33994;DHT22;20673;48.980;8.138;2022-08-30T04:51:40;17.00;99.90
33994;DHT22;20673;48.980;8.138;2022-08-30T04:54:06;17.00;99.90
33994;DHT22;20673;48.980;8.138;2022-08-30T04:56:32;17.00;99.90
33994;DHT22;20673;48.980;8.138;2022-08-30T04:58:59;17.00;99.90
33994;DHT22;20673;48.980;8.138;2022-08-30T05:01:27;16.90;99.90
33994;DHT22;20673;48.980;8.138;2022-08-30T05:03:56;17.00;99.90
33994;DHT22;20673;48.980;8.138;2022-08-30T05:06:25;16.90;99.90
33994;DHT22;20673;48.980;8.138;2022-08-30T05:08:54;17.00;99.90
33994;DHT22;20673;48.980;8.138;2022-08-30T05:11:20;17.00;99.90
33994;DHT22;20673;48.980;8.138;2022-08-30T05:13:47;16.90;99.90
33994;DHT22;20673;48.980;8.138;2022-08-30T05:16:14;17.00;99.90
33994;DHT22;20673;48.980;8.138;2022-08-30T05:18:44;17.10;99.90
33994;DHT22;20673;48.980;8.138;2022-08-30T05:21:14;17.10;99.90
33994;DHT22;20673;48.980;8.138;2022-08-30T05:23:48;17.10;99.90
33994;DHT22;20673;48.980;8.138;2022-08-30T05:26:19;17.10;99.90
33994;DHT22;20673;48.980;8.138;2022-08-30T05:28:47;17.20;99.90
33994;DHT22;20673;48.980;8.138;2022-08-30T05:31:17;17.20;99.90
33994;DHT22;20673;48.980;8.138;2022-08-30T05:33:55;17.30;99.90
33994;DHT22;20673;48.980;8.138;2022-08-30T05:36:25;17.30;99.90
33994;DHT22;20673;48.980;8.138;2022-08-30T05:38:54;17.40;99.90
33994;DHT22;20673;48.980;8.138;2022-08-30T05:41:21;17.40;99.90
33994;DHT22;20673;48.980;8.138;2022-08-30T05:43:51;17.50;99.90
33994;DHT22;20673;48.980;8.138;2022-08-30T05:46:18;17.50;99.90
33994;DHT22;20673;48.980;8.138;2022-08-30T05:48:47;17.60;99.90
33994;DHT22;20673;48.980;8.138;2022-08-30T05:51:20;17.60;99.90
33994;DHT22;20673;48.980;8.138;2022-08-30T05:53:48;17.70;99.90
33994;DHT22;20673;48.980;8.138;2022-08-30T05:56:19;17.80;99.90
33994;DHT22;20673;48.980;8.138;2022-08-30T05:58:47;17.80;99.90
33994;DHT22;20673;48.980;8.138;2022-08-30T06:01:25;17.90;99.90
33994;DHT22;20673;48.980;8.138;2022-08-30T06:03:55;17.90;99.90
33994;DHT22;20673;48.980;8.138;2022-08-30T06:06:23;18.00;99.90
33994;DHT22;20673;48.980;8.138;2022-08-30T06:08:49;18.00;99.90
33994;DHT22;20673;48.980;8.138;2022-08-30T06:11:18;18.10;99.90
33994;DHT22;20673;48.980;8.138;2022-08-30T06:13:46;18.10;99.90
33994;DHT22;20673;48.980;8.138;2022-08-30T06:16:15;18.10;99.90
33994;DHT22;20673;48.980;8.138;2022-08-30T06:18:43;18.20;99.90
33994;DHT22;20673;48.980;8.138;2022-08-30T06:21:27;18.20;99.90
33994;DHT22;20673;48.980;8.138;2022-08-30T06:23:56;18.30;99.90
33994;DHT22;20673;48.980;8.138;2022-08-30T06:26:23;18.40;99.90
33994;DHT22;20673;48.980;8.138;2022-08-30T06:28:50;18.50;99.90
33994;DHT22;20673;48.980;8.138;2022-08-30T06:31:19;18.50;99.90
33994;DHT22;20673;48.980;8.138;2022-08-30T06:33:46;18.50;99.90
33994;DHT22;20673;48.980;8.138;2022-08-30T06:36:15;18.60;99.90
33994;DHT22;20673;48.980;8.138;2022-08-30T06:38:44;18.70;99.90
33994;DHT22;20673;48.980;8.138;2022-08-30T06:41:16;18.70;99.90
33994;DHT22;20673;48.980;8.138;2022-08-30T06:43:43;18.80;99.90
33994;DHT22;20673;48.980;8.138;2022-08-30T06:46:12;18.80;99.90
33994;DHT22;20673;48.980;8.138;2022-08-30T06:48:40;18.90;99.90
33994;DHT22;20673;48.980;8.138;2022-08-30T06:51:06;18.90;99.90
33994;DHT22;20673;48.980;8.138;2022-08-30T06:53:33;18.90;99.90
33994;DHT22;20673;48.980;8.138;2022-08-30T06:56:08;19.00;99.90
33994;DHT22;20673;48.980;8.138;2022-08-30T06:58:37;19.20;99.90
33994;DHT22;20673;48.980;8.138;2022-08-30T07:01:06;19.20;99.90
33994;DHT22;20673;48.980;8.138;2022-08-30T07:03:34;19.40;99.90
33994;DHT22;20673;48.980;8.138;2022-08-30T07:06:01;19.60;99.90
33994;DHT22;20673;48.980;8.138;2022-08-30T07:08:27;19.70;99.90
33994;DHT22;20673;48.980;8.138;2022-08-30T07:10:55;19.80;99.90
33994;DHT22;20673;48.980;8.138;2022-08-30T07:13:21;20.00;99.90
33994;DHT22;20673;48.980;8.138;2022-08-30T07:15:49;20.10;99.90
33994;DHT22;20673;48.980;8.138;2022-08-30T07:18:17;20.20;99.90
33994;DHT22;20673;48.980;8.138;2022-08-30T07:21:07;20.40;99.90
33994;DHT22;20673;48.980;8.138;2022-08-30T07:23:35;20.70;99.90
33994;DHT22;20673;48.980;8.138;2022-08-30T07:26:07;20.90;99.90
33994;DHT22;20673;48.980;8.138;2022-08-30T07:28:36;21.20;99.90
33994;DHT22;20673;48.980;8.138;2022-08-30T07:31:05;21.50;99.90
33994;DHT22;20673;48.980;8.138;2022-08-30T07:33:32;21.50;99.90
33994;DHT22;20673;48.980;8.138;2022-08-30T07:35:59;21.50;99.90
33994;DHT22;20673;48.980;8.138;2022-08-30T07:38:26;21.50;99.90
33994;DHT22;20673;48.980;8.138;2022-08-30T07:40:53;21.60;99.90
33994;DHT22;20673;48.980;8.138;2022-08-30T07:43:19;21.60;99.90
33994;DHT22;20673;48.980;8.138;2022-08-30T07:45:46;21.40;99.90
33994;DHT22;20673;48.980;8.138;2022-08-30T07:48:12;21.50;99.90
33994;DHT22;20673;48.980;8.138;2022-08-30T07:50:43;21.40;99.90
33994;DHT22;20673;48.980;8.138;2022-08-30T07:53:11;21.50;99.90
33994;DHT22;20673;48.980;8.138;2022-08-30T07:55:38;21.60;99.90
33994;DHT22;20673;48.980;8.138;2022-08-30T07:58:05;21.80;99.90
33994;DHT22;20673;48.980;8.138;2022-08-30T08:00:31;22.00;99.90
33994;DHT22;20673;48.980;8.138;2022-08-30T08:02:57;22.00;99.90
33994;DHT22;20673;48.980;8.138;2022-08-30T08:05:37;22.00;99.90
33994;DHT22;20673;48.980;8.138;2022-08-30T08:08:05;22.30;99.90
33994;DHT22;20673;48.980;8.138;2022-08-30T08:10:32;22.40;99.90
33994;DHT22;20673;48.980;8.138;2022-08-30T08:13:00;22.40;99.90
33994;DHT22;20673;48.980;8.138;2022-08-30T08:15:26;22.30;99.90
33994;DHT22;20673;48.980;8.138;2022-08-30T08:17:53;22.40;99.90
33994;DHT22;20673;48.980;8.138;2022-08-30T08:20:20;22.40;99.90
33994;DHT22;20673;48.980;8.138;2022-08-30T08:22:47;22.60;99.90
33994;DHT22;20673;48.980;8.138;2022-08-30T08:25:14;22.70;99.90
33994;DHT22;20673;48.980;8.138;2022-08-30T08:27:40;23.10;99.90
33994;DHT22;20673;48.980;8.138;2022-08-30T08:30:07;23.30;99.90
33994;DHT22;20673;48.980;8.138;2022-08-30T08:32:34;23.60;99.90
33994;DHT22;20673;48.980;8.138;2022-08-30T08:35:00;23.80;99.90
33994;DHT22;20673;48.980;8.138;2022-08-30T08:37:27;23.70;99.90
33994;DHT22;20673;48.980;8.138;2022-08-30T08:39:53;23.70;99.90
33994;DHT22;20673;48.980;8.138;2022-08-30T08:42:35;23.90;99.90
33994;DHT22;20673;48.980;8.138;2022-08-30T08:45:41;24.00;99.90
33994;DHT22;20673;48.980;8.138;2022-08-30T08:48:34;24.20;99.90
33994;DHT22;20673;48.980;8.138;2022-08-30T08:51:09;24.60;99.90
33994;DHT22;20673;48.980;8.138;2022-08-30T08:54:01;24.80;99.90
33994;DHT22;20673;48.980;8.138;2022-08-30T08:56:31;25.10;99.90
33994;DHT22;20673;48.980;8.138;2022-08-30T08:58:58;25.30;99.90
33994;DHT22;20673;48.980;8.138;2022-08-30T09:01:27;25.40;99.90
33994;DHT22;20673;48.980;8.138;2022-08-30T09:04:00;25.40;99.90
33994;DHT22;20673;48.980;8.138;2022-08-30T09:09:21;25.90;99.90
33994;DHT22;20673;48.980;8.138;2022-08-30T09:11:50;26.00;99.90
33994;DHT22;20673;48.980;8.138;2022-08-30T09:14:21;26.40;99.90
33994;DHT22;20673;48.980;8.138;2022-08-30T09:27:52;27.70;99.90
33994;DHT22;20673;48.980;8.138;2022-08-30T09:30:26;27.70;99.90
33994;DHT22;20673;48.980;8.138;2022-08-30T09:33:02;27.50;99.90
33994;DHT22;20673;48.980;8.138;2022-08-30T09:35:36;27.70;99.90
33994;DHT22;20673;48.980;8.138;2022-08-30T09:38:07;27.70;99.90
33994;DHT22;20673;48.980;8.138;2022-08-30T09:40:47;27.70;99.90
33994;DHT22;20673;48.980;8.138;2022-08-30T09:43:19;27.70;99.90
33994;DHT22;20673;48.980;8.138;2022-08-30T09:48:37;28.20;99.90
33994;DHT22;20673;48.980;8.138;2022-08-30T09:51:23;28.50;99.90
33994;DHT22;20673;48.980;8.138;2022-08-30T09:54:18;28.70;99.90
33994;DHT22;20673;48.980;8.138;2022-08-30T09:57:02;28.90;99.90
33994;DHT22;20673;48.980;8.138;2022-08-30T09:59:54;29.10;99.90
33994;DHT22;20673;48.980;8.138;2022-08-30T10:11:18;29.80;99.90
33994;DHT22;20673;48.980;8.138;2022-08-30T10:16:44;30.80;99.90
33994;DHT22;20673;48.980;8.138;2022-08-30T10:19:41;31.00;99.90
33994;DHT22;20673;48.980;8.138;2022-08-30T10:22:30;30.90;99.90
33994;DHT22;20673;48.980;8.138;2022-08-30T10:25:16;31.40;99.90
33994;DHT22;20673;48.980;8.138;2022-08-30T10:27:48;31.30;99.90
33994;DHT22;20673;48.980;8.138;2022-08-30T10:30:21;31.30;99.90
33994;DHT22;20673;48.980;8.138;2022-08-30T10:35:45;31.40;99.90
33994;DHT22;20673;48.980;8.138;2022-08-30T10:38:28;31.30;99.90
33994;DHT22;20673;48.980;8.138;2022-08-30T10:41:16;31.80;99.90
33994;DHT22;20673;48.980;8.138;2022-08-30T10:47:18;31.70;99.90
33994;DHT22;20673;48.980;8.138;2022-08-30T10:49:48;31.70;99.90
33994;DHT22;20673;48.980;8.138;2022-08-30T10:55:23;31.70;99.90
33994;DHT22;20673;48.980;8.138;2022-08-30T10:57:52;31.90;99.90
33994;DHT22;20673;48.980;8.138;2022-08-30T11:00:30;31.90;99.90
33994;DHT22;20673;48.980;8.138;2022-08-30T11:15:19;32.10;99.90
33994;DHT22;20673;48.980;8.138;2022-08-30T11:17:59;31.40;99.90
33994;DHT22;20673;48.980;8.138;2022-08-30T11:20:42;31.40;99.90
33994;DHT22;20673;48.980;8.138;2022-08-30T11:26:01;31.20;99.90
33994;DHT22;20673;48.980;8.138;2022-08-30T11:31:11;31.70;99.90
33994;DHT22;20673;48.980;8.138;2022-08-30T11:33:51;32.10;99.90
33994;DHT22;20673;48.980;8.138;2022-08-30T11:39:07;32.20;99.90
33994;DHT22;20673;48.980;8.138;2022-08-30T11:44:25;32.80;99.90
33994;DHT22;20673;48.980;8.138;2022-08-30T11:46:49;33.20;99.90
33994;DHT22;20673;48.980;8.138;2022-08-30T12:03:38;33.70;99.90
33994;DHT22;20673;48.980;8.138;2022-08-30T12:06:07;33.80;99.90
33994;DHT22;20673;48.980;8.138;2022-08-30T12:08:44;33.60;99.90
33994;DHT22;20673;48.980;8.138;2022-08-30T12:16:20;33.70;99.90
33994;DHT22;20673;48.980;8.138;2022-08-30T12:21:34;34.20;99.90
33994;DHT22;20673;48.980;8.138;2022-08-30T12:26:52;34.20;99.90
33994;DHT22;20673;48.980;8.138;2022-08-30T12:29:24;34.20;99.90
33994;DHT22;20673;48.980;8.138;2022-08-30T12:32:03;34.20;99.90
33994;DHT22;20673;48.980;8.138;2022-08-30T12:34:55;34.30;99.90
33994;DHT22;20673;48.980;8.138;2022-08-30T12:37:26;34.50;99.90
33994;DHT22;20673;48.980;8.138;2022-08-30T12:40:15;34.50;99.90
33994;DHT22;20673;48.980;8.138;2022-08-30T12:42:58;34.30;99.90
33994;DHT22;20673;48.980;8.138;2022-08-30T12:45:40;34.20;99.90
33994;DHT22;20673;48.980;8.138;2022-08-30T12:48:11;34.40;99.90
33994;DHT22;20673;48.980;8.138;2022-08-30T12:50:48;34.60;99.90
33994;DHT22;20673;48.980;8.138;2022-08-30T12:53:33;34.30;99.90
33994;DHT22;20673;48.980;8.138;2022-08-30T12:56:10;34.00;99.90
33994;DHT22;20673;48.980;8.138;2022-08-30T12:58:46;33.80;99.90
33994;DHT22;20673;48.980;8.138;2022-08-30T13:04:21;34.20;99.90
33994;DHT22;20673;48.980;8.138;2022-08-30T13:07:00;34.20;99.90
33994;DHT22;20673;48.980;8.138;2022-08-30T13:09:36;33.90;99.90
33994;DHT22;20673;48.980;8.138;2022-08-30T13:12:18;34.40;99.90
33994;DHT22;20673;48.980;8.138;2022-08-30T13:14:48;34.70;99.90
33994;DHT22;20673;48.980;8.138;2022-08-30T13:17:24;34.70;99.90
33994;DHT22;20673;48.980;8.138;2022-08-30T13:20:02;34.90;99.90
33994;DHT22;20673;48.980;8.138;2022-08-30T13:22:35;35.00;99.90
33994;DHT22;20673;48.980;8.138;2022-08-30T13:25:05;35.30;99.90
33994;DHT22;20673;48.980;8.138;2022-08-30T13:27:34;35.70;99.90
33994;DHT22;20673;48.980;8.138;2022-08-30T13:30:11;35.50;99.90
33994;DHT22;20673;48.980;8.138;2022-08-30T13:32:41;35.60;99.90
33994;DHT22;20673;48.980;8.138;2022-08-30T13:35:08;35.40;99.90
33994;DHT22;20673;48.980;8.138;2022-08-30T13:37:36;35.30;99.90
33994;DHT22;20673;48.980;8.138;2022-08-30T13:40:12;35.30;99.70
33994;DHT22;20673;48.980;8.138;2022-08-30T13:42:37;35.50;99.90
33994;DHT22;20673;48.980;8.138;2022-08-30T13:45:06;35.10;99.90
33994;DHT22;20673;48.980;8.138;2022-08-30T13:47:33;34.80;99.90
33994;DHT22;20673;48.980;8.138;2022-08-30T13:49:59;34.60;99.90
33994;DHT22;20673;48.980;8.138;2022-08-30T13:52:25;34.70;99.90
33994;DHT22;20673;48.980;8.138;2022-08-30T13:54:53;35.00;99.90
33994;DHT22;20673;48.980;8.138;2022-08-30T13:57:24;34.80;99.90
33994;DHT22;20673;48.980;8.138;2022-08-30T13:59:52;34.90;98.90
33994;DHT22;20673;48.980;8.138;2022-08-30T14:02:18;35.20;99.70
33994;DHT22;20673;48.980;8.138;2022-08-30T14:04:44;34.90;99.90
33994;DHT22;20673;48.980;8.138;2022-08-30T14:07:11;34.50;99.30
33994;DHT22;20673;48.980;8.138;2022-08-30T14:09:37;34.30;99.50
33994;DHT22;20673;48.980;8.138;2022-08-30T14:12:04;33.70;99.90
33994;DHT22;20673;48.980;8.138;2022-08-30T14:14:31;33.70;99.90
33994;DHT22;20673;48.980;8.138;2022-08-30T14:16:57;33.70;99.90
33994;DHT22;20673;48.980;8.138;2022-08-30T14:19:23;33.70;99.90
33994;DHT22;20673;48.980;8.138;2022-08-30T14:21:50;34.00;99.90
33994;DHT22;20673;48.980;8.138;2022-08-30T14:24:16;34.00;99.90
33994;DHT22;20673;48.980;8.138;2022-08-30T14:26:47;34.50;99.90
33994;DHT22;20673;48.980;8.138;2022-08-30T14:29:22;34.10;99.90
33994;DHT22;20673;48.980;8.138;2022-08-30T14:31:47;33.60;99.90
33994;DHT22;20673;48.980;8.138;2022-08-30T14:34:15;33.50;99.90
33994;DHT22;20673;48.980;8.138;2022-08-30T14:36:43;33.60;99.90
33994;DHT22;20673;48.980;8.138;2022-08-30T14:39:17;33.80;99.90
33994;DHT22;20673;48.980;8.138;2022-08-30T14:41:45;33.70;99.90
33994;DHT22;20673;48.980;8.138;2022-08-30T14:44:16;33.50;99.90
33994;DHT22;20673;48.980;8.138;2022-08-30T14:46:44;33.60;99.90
33994;DHT22;20673;48.980;8.138;2022-08-30T14:49:11;33.70;99.90
33994;DHT22;20673;48.980;8.138;2022-08-30T14:51:39;34.20;99.90
33994;DHT22;20673;48.980;8.138;2022-08-30T14:54:06;34.50;99.80
33994;DHT22;20673;48.980;8.138;2022-08-30T14:56:33;34.30;99.90
33994;DHT22;20673;48.980;8.138;2022-08-30T14:59:01;33.70;98.60
33994;DHT22;20673;48.980;8.138;2022-08-30T15:01:28;33.70;99.90
33994;DHT22;20673;48.980;8.138;2022-08-30T15:03:55;33.90;99.60
33994;DHT22;20673;48.980;8.138;2022-08-30T15:06:23;34.00;99.20
33994;DHT22;20673;48.980;8.138;2022-08-30T15:08:49;34.20;99.50
33994;DHT22;20673;48.980;8.138;2022-08-30T15:11:18;34.30;98.80
33994;DHT22;20673;48.980;8.138;2022-08-30T15:13:47;34.20;98.60
33994;DHT22;20673;48.980;8.138;2022-08-30T15:16:19;34.10;98.90
33994;DHT22;20673;48.980;8.138;2022-08-30T15:18:48;34.40;98.90
33994;DHT22;20673;48.980;8.138;2022-08-30T15:21:26;34.80;99.00
33994;DHT22;20673;48.980;8.138;2022-08-30T15:23:56;34.90;98.90
33994;DHT22;20673;48.980;8.138;2022-08-30T15:26:23;34.70;99.10
33994;DHT22;20673;48.980;8.138;2022-08-30T15:28:50;35.10;97.80
33994;DHT22;20673;48.980;8.138;2022-08-30T15:31:18;34.80;97.80
33994;DHT22;20673;48.980;8.138;2022-08-30T15:33:46;34.50;98.10
33994;DHT22;20673;48.980;8.138;2022-08-30T15:36:12;34.30;98.40
33994;DHT22;20673;48.980;8.138;2022-08-30T15:38:39;34.10;98.30
33994;DHT22;20673;48.980;8.138;2022-08-30T15:41:09;33.80;98.30
33994;DHT22;20673;48.980;8.138;2022-08-30T15:43:37;33.90;99.50
33994;DHT22;20673;48.980;8.138;2022-08-30T15:46:14;33.60;98.40
33994;DHT22;20673;48.980;8.138;2022-08-30T15:48:44;33.50;99.40
33994;DHT22;20673;48.980;8.138;2022-08-30T15:51:12;33.30;99.50
33994;DHT22;20673;48.980;8.138;2022-08-30T15:53:39;33.30;99.20
33994;DHT22;20673;48.980;8.138;2022-08-30T15:56:05;32.70;99.90
33994;DHT22;20673;48.980;8.138;2022-08-30T15:58:32;32.40;98.80
33994;DHT22;20673;48.980;8.138;2022-08-30T16:00:58;31.80;99.70
33994;DHT22;20673;48.980;8.138;2022-08-30T16:03:24;31.50;99.90
33994;DHT22;20673;48.980;8.138;2022-08-30T16:05:51;31.10;99.90
33994;DHT22;20673;48.980;8.138;2022-08-30T16:08:17;30.70;99.90
33994;DHT22;20673;48.980;8.138;2022-08-30T16:10:43;30.50;99.90
33994;DHT22;20673;48.980;8.138;2022-08-30T16:13:10;30.30;99.90
33994;DHT22;20673;48.980;8.138;2022-08-30T16:15:38;30.30;99.90
33994;DHT22;20673;48.980;8.138;2022-08-30T16:18:05;30.30;99.90
33994;DHT22;20673;48.980;8.138;2022-08-30T16:20:31;30.60;99.90
33994;DHT22;20673;48.980;8.138;2022-08-30T16:22:57;30.80;99.90
33994;DHT22;20673;48.980;8.138;2022-08-30T16:25:24;31.10;99.90
33994;DHT22;20673;48.980;8.138;2022-08-30T16:27:50;31.40;99.90
33994;DHT22;20673;48.980;8.138;2022-08-30T16:30:17;31.30;99.90
33994;DHT22;20673;48.980;8.138;2022-08-30T16:32:44;31.00;99.90
33994;DHT22;20673;48.980;8.138;2022-08-30T16:35:11;30.50;99.90
33994;DHT22;20673;48.980;8.138;2022-08-30T16:37:37;30.30;99.90
33994;DHT22;20673;48.980;8.138;2022-08-30T16:40:04;29.90;99.90
33994;DHT22;20673;48.980;8.138;2022-08-30T16:42:32;29.90;99.90
33994;DHT22;20673;48.980;8.138;2022-08-30T16:44:58;29.60;99.90
33994;DHT22;20673;48.980;8.138;2022-08-30T16:47:25;29.40;99.90
33994;DHT22;20673;48.980;8.138;2022-08-30T16:49:51;29.20;99.90
33994;DHT22;20673;48.980;8.138;2022-08-30T16:52:17;29.10;99.90
33994;DHT22;20673;48.980;8.138;2022-08-30T16:54:44;28.80;99.90
33994;DHT22;20673;48.980;8.138;2022-08-30T16:57:10;28.80;99.90
33994;DHT22;20673;48.980;8.138;2022-08-30T16:59:36;28.60;99.90
33994;DHT22;20673;48.980;8.138;2022-08-30T17:02:03;28.50;99.90
33994;DHT22;20673;48.980;8.138;2022-08-30T17:04:29;28.50;99.90
33994;DHT22;20673;48.980;8.138;2022-08-30T17:06:55;28.40;99.90
33994;DHT22;20673;48.980;8.138;2022-08-30T17:09:22;28.30;99.90
33994;DHT22;20673;48.980;8.138;2022-08-30T17:11:48;28.20;99.90
33994;DHT22;20673;48.980;8.138;2022-08-30T17:14:15;28.10;99.90